< < Back
Terminal Aerodrome Forecast


Current Version              Previous Versions:   1  2  3  4  5  6  7  8  9  

Terminal Aerodrome Forecast

806
FTUS44 KHUN 280540
TAFHSV
TAF
KHSV 280540Z 2806/2906 VRB03KT P6SM SCT050 SCT250
     FM281600 28006KT P6SM SCT050=

Latest METAR

587
SAUS80 KWBC 282200 RRB
MTRHSV
METAR KHSV 282153Z 31009KT 10SM SCT055 SCT250 37/20 A2997 RMK AO2 SLP139
CB DSNT E T03720200


USA.gov is the U.S. government's official web portal to all federal, state and local government web resources and services.